Trine Charlotte — LMRY — position and weather

sailwx.info

Track history (hours):
 
Tides and Currents Weather Stations Pressure Air Temp Water Temp Dewpoint Dewpoint Depression Visibility Wind Speed Wind Dir Waves Ship Positions

Trine Charlotte

Last reported at 2017-Aug-20 19:00 UTC. Time now 2017-Aug-20 19:19 UTC.
Position N 68°38' E 015°34'.

Length 66 m; draft 4.4 m.

Type: Cargo ship. MMSI: 257233000.

Date/timePositionNaut miles runAvg speedWind from/ knotsBaromVisibWave heightAir tempDewpointWater temp
2017-Aug-20 19:00N 68°38' E 015°34'0 0.0
2017-Aug-20 18:30N 68°38' E 015°34'0 0.0
2017-Aug-20 18:00N 68°38' E 015°34'0 0.0
2017-Aug-20 17:30N 68°38' E 015°34'0 0.0
2017-Aug-20 17:00N 68°38' E 015°34'0 0.0
2017-Aug-20 16:30N 68°38' E 015°34'0 0.0
2017-Aug-20 16:00N 68°38' E 015°34'0 0.0
2017-Aug-20 15:30N 68°38' E 015°34'0 0.0
2017-Aug-20 15:00N 68°38' E 015°34'0 0.0
2017-Aug-20 14:30N 68°38' E 015°34'0 0.0
2017-Aug-20 14:00N 68°38' E 015°34'1 1.9
2017-Aug-20 13:30N 68°38' E 015°31'4 7.7
2017-Aug-20 13:00N 68°37' E 015°21'1 2.8
2017-Aug-20 12:30N 68°36' E 015°20'0 0.0
2017-Aug-20 12:00N 68°36' E 015°20'0 0.0
2017-Aug-20 11:30N 68°36' E 015°20'0 0.0
2017-Aug-20 11:00N 68°36' E 015°20'2 4.9
2017-Aug-20 10:30N 68°38' E 015°24'4 7.5
2017-Aug-20 10:00N 68°38' E 015°34'0 0.0
2017-Aug-20 09:30N 68°38' E 015°34'0 0.0
2017-Aug-20 09:00N 68°38' E 015°34'0 0.0
2017-Aug-20 08:30N 68°38' E 015°34'0 0.0
2017-Aug-20 08:00N 68°38' E 015°34'0 0.0
2017-Aug-20 07:30N 68°38' E 015°34'0 0.0
2017-Aug-20 07:00N 68°38' E 015°34'0 0.0
2017-Aug-20 06:29N 68°38' E 015°34'0 0.0
2017-Aug-20 06:00N 68°38' E 015°34'0 0.0
2017-Aug-20 05:30N 68°38' E 015°34'0 0.0
2017-Aug-20 05:00N 68°38' E 015°34'0 0.0
2017-Aug-20 04:30N 68°38' E 015°34'0 0.0
2017-Aug-20 04:00N 68°38' E 015°34'0 0.0
2017-Aug-20 03:29N 68°38' E 015°34'0 0.0
2017-Aug-20 03:00N 68°38' E 015°34'0 0.0
2017-Aug-20 02:30N 68°38' E 015°34'0 0.0
2017-Aug-20 02:00N 68°38' E 015°34'0 0.0
2017-Aug-20 01:30N 68°38' E 015°34'1 2.5
2017-Aug-20 01:00N 68°38' E 015°31'4 7.4
2017-Aug-20 00:30N 68°37' E 015°21'1 2.5
2017-Aug-20 00:00N 68°36' E 015°20'0 0.0
2017-Aug-19 23:30N 68°36' E 015°20'0 0.0
2017-Aug-19 23:00N 68°36' E 015°20'0 0.0
2017-Aug-19 22:30N 68°36' E 015°20'4 7.3
2017-Aug-19 21:59N 68°38' E 015°27'2 4.9
2017-Aug-19 21:30N 68°38' E 015°34'0 0.0
2017-Aug-19 21:00N 68°38' E 015°34'0 0.0
2017-Aug-19 20:30N 68°38' E 015°34'0 0.0
2017-Aug-19 20:00N 68°38' E 015°34'0 0.0
2017-Aug-19 19:30N 68°38' E 015°34'0 0.0
2017-Aug-19 18:59N 68°38' E 015°34'0 0.0
2017-Aug-19 18:30N 68°38' E 015°34'0 0.0
2017-Aug-19 18:00N 68°38' E 015°34'0 0.0
2017-Aug-19 17:30N 68°38' E 015°34'0 0.0
2017-Aug-19 17:00N 68°38' E 015°34'0 0.0
2017-Aug-19 16:30N 68°38' E 015°34'0 0.0
2017-Aug-19 16:00N 68°38' E 015°34'0 0.2
2017-Aug-19 15:31N 68°38' E 015°34'4 7.6
2017-Aug-19 15:00N 68°38' E 015°24'2 2.5
2017-Aug-19 14:00N 68°36' E 015°20'0 0.0
2017-Aug-19 13:30N 68°36' E 015°20'0 0.0
2017-Aug-19 13:00N 68°36' E 015°20'0 0.0
2017-Aug-19 12:30N 68°36' E 015°20'2 4.7
2017-Aug-19 12:00N 68°37' E 015°24'4 7.7
2017-Aug-19 11:30N 68°38' E 015°34'0 0.0
2017-Aug-19 11:00N 68°38' E 015°34'0 0.0
2017-Aug-19 10:30N 68°38' E 015°34'0 0.0
2017-Aug-19 10:00N 68°38' E 015°34'0 0.0
2017-Aug-19 09:30N 68°38' E 015°34'0 0.0
2017-Aug-19 09:00N 68°38' E 015°34'0 0.0
2017-Aug-19 08:30N 68°38' E 015°34'0 0.0
2017-Aug-19 08:00N 68°38' E 015°34'0 0.0
2017-Aug-19 07:30N 68°38' E 015°34'0 0.0
2017-Aug-19 06:59N 68°38' E 015°34'0 0.0
2017-Aug-19 06:29N 68°38' E 015°34'0 0.0
2017-Aug-19 06:00N 68°38' E 015°34'0 0.0
2017-Aug-19 05:30N 68°38' E 015°34'0 0.0
2017-Aug-19 05:00N 68°38' E 015°34'0 0.0
2017-Aug-19 04:30N 68°38' E 015°34'0 0.0
2017-Aug-19 04:00N 68°38' E 015°34'0 0.0
2017-Aug-19 03:30N 68°38' E 015°34'0 0.0
2017-Aug-19 03:00N 68°38' E 015°34'0 0.0
2017-Aug-19 02:30N 68°38' E 015°34'0 0.0
2017-Aug-19 02:00N 68°38' E 015°34'0 0.0
2017-Aug-19 01:30N 68°38' E 015°34'0 0.0
2017-Aug-19 01:00N 68°38' E 015°34'0 0.0
2017-Aug-19 00:30N 68°38' E 015°34'0 0.0
2017-Aug-19 00:00N 68°38' E 015°34'0 0.0
2017-Aug-18 23:30N 68°38' E 015°34'0 0.0
2017-Aug-18 22:59N 68°38' E 015°34'0 0.0
2017-Aug-18 22:30N 68°38' E 015°34'0 0.0
2017-Aug-18 22:00N 68°38' E 015°34'0 0.0
2017-Aug-18 21:30N 68°38' E 015°34'0 0.0
2017-Aug-18 21:00N 68°38' E 015°34'0 0.0
2017-Aug-18 20:29N 68°38' E 015°34'0 0.0
2017-Aug-18 20:00N 68°38' E 015°34'0 0.0
2017-Aug-18 19:29N 68°38' E 015°34'0 0.0
2017-Aug-18 19:00N 68°38' E 015°34'0 0.0
2017-Aug-18 18:30N 68°38' E 015°34'0 0.0
2017-Aug-18 18:00N 68°38' E 015°34'0 0.0
2017-Aug-18 17:30N 68°38' E 015°34'1 2.9
2017-Aug-18 17:00N 68°38' E 015°30'4 7.7
2017-Aug-18 16:30N 68°37' E 015°20'1 1.9
2017-Aug-18 15:59N 68°36' E 015°20'0 0.0
2017-Aug-18 15:30N 68°36' E 015°20'0 0.0
2017-Aug-18 15:00N 68°36' E 015°20'0 0.0
2017-Aug-18 14:30N 68°36' E 015°20'6 6.3
2017-Aug-18 13:29N 68°42' E 015°26'1 1.3
2017-Aug-18 12:59N 68°42' E 015°25'0 0.0
2017-Aug-18 12:30N 68°42' E 015°25'2 3.4
2017-Aug-18 11:59N 68°44' E 015°26'4 8.7
2017-Aug-18 11:30N 68°48' E 015°26'5 9.0
2017-Aug-18 11:00N 68°52' E 015°31'5 9.2
2017-Aug-18 10:30N 68°56' E 015°36'2 3.8
2017-Aug-18 10:00N 68°58' E 015°39'0 0.0
2017-Aug-18 09:29N 68°58' E 015°39'1 1.6
2017-Aug-18 09:00N 68°58' E 015°37'0 0.3
2017-Aug-18 08:30N 68°58' E 015°37'1 1.3
2017-Aug-18 08:00N 68°58' E 015°39'0 0.0
2017-Aug-18 07:30N 68°58' E 015°39'0 0.0
2017-Aug-18 07:00N 68°58' E 015°39'0 0.0
2017-Aug-18 06:29N 68°58' E 015°39'0 0.0
2017-Aug-18 06:00N 68°58' E 015°39'0 0.0
2017-Aug-18 05:29N 68°58' E 015°39'0 0.0
2017-Aug-18 05:00N 68°58' E 015°39'0 0.0
2017-Aug-18 04:30N 68°58' E 015°39'0 0.1
2017-Aug-18 04:00N 68°58' E 015°39'4 7.3
2017-Aug-18 03:30N 68°55' E 015°35'4 8.3
2017-Aug-18 03:00N 68°51' E 015°29'4 8.5
2017-Aug-18 02:30N 68°47' E 015°26'5 9.5
2017-Aug-18 02:00N 68°42' E 015°26'4 8.9
2017-Aug-18 01:30N 68°38' E 015°29'2 3.8
2017-Aug-18 01:00N 68°38' E 015°34'0 0.0
2017-Aug-18 00:30N 68°38' E 015°34'0 0.0
2017-Aug-18 00:00N 68°38' E 015°34'0 0.0
2017-Aug-17 23:30N 68°38' E 015°34'0 0.0
2017-Aug-17 23:00N 68°38' E 015°34'1 2.6
2017-Aug-17 22:30N 68°38' E 015°31'4 7.9
2017-Aug-17 22:00N 68°42' E 015°26'5 9.5
2017-Aug-17 21:29N 68°46' E 015°26'5 9.5
2017-Aug-17 21:00N 68°51' E 015°29'5 9.7
2017-Aug-17 20:30N 68°55' E 015°35'3 6.1
2017-Aug-17 20:00N 68°58' E 015°39'0 0.0
2017-Aug-17 18:41N 68°58' E 015°39'0 0.0
2017-Aug-17 18:29N 68°58' E 015°39'0 0.0
2017-Aug-17 18:00N 68°58' E 015°39'0 0.0
2017-Aug-17 17:30N 68°58' E 015°39'0 0.0
2017-Aug-17 17:00N 68°58' E 015°39'0 0.0
2017-Aug-17 16:30N 68°58' E 015°39'0 0.0
2017-Aug-17 16:00N 68°58' E 015°39'0 0.0
2017-Aug-17 15:29N 68°58' E 015°39'0 0.0
2017-Aug-17 15:00N 68°58' E 015°39'0 0.0
2017-Aug-17 14:29N 68°58' E 015°39'0 0.0
2017-Aug-17 14:00N 68°58' E 015°39'0 0.0
2017-Aug-17 13:29N 68°58' E 015°39'0 0.0
2017-Aug-17 12:59N 68°58' E 015°39'0 0.0
2017-Aug-17 12:30N 68°58' E 015°39'0 0.0
2017-Aug-17 12:00N 68°58' E 015°39'0 0.0
2017-Aug-17 11:30N 68°58' E 015°39'0 0.0
2017-Aug-17 10:59N 68°58' E 015°39'0 0.0
2017-Aug-17 10:30N 68°58' E 015°39'0 0.0
2017-Aug-17 10:00N 68°58' E 015°39'0 0.0
2017-Aug-17 09:29N 68°58' E 015°39'1 1.7
2017-Aug-17 09:00N 68°58' E 015°37'0 0.7
2017-Aug-17 08:30N 68°58' E 015°38'0 0.9
2017-Aug-17 07:59N 68°58' E 015°38'0 0.0
2017-Aug-17 07:30N 68°58' E 015°38'0 0.0
2017-Aug-17 07:00N 68°58' E 015°38'0 0.0
2017-Aug-17 06:30N 68°58' E 015°38'0 0.0
2017-Aug-17 06:00N 68°58' E 015°38'0 0.0
2017-Aug-17 05:30N 68°58' E 015°38'0 0.0
2017-Aug-17 05:00N 68°58' E 015°38'0 0.0
2017-Aug-17 04:30N 68°58' E 015°38'0 0.0
2017-Aug-17 04:00N 68°58' E 015°38'1 1.6
2017-Aug-17 03:30N 68°57' E 015°37'3 6.4
2017-Aug-17 03:00N 68°54' E 015°35'3 6.5
2017-Aug-17 02:30N 68°52' E 015°30'4 7.2
2017-Aug-17 02:00N 68°48' E 015°26'4 7.8
2017-Aug-17 01:30N 68°44' E 015°26'4 8.1
2017-Aug-17 01:00N 68°40' E 015°26'3 5.4
2017-Aug-17 00:30N 68°38' E 015°30'1 2.6
2017-Aug-17 00:00N 68°38' E 015°34'0 0.0
2017-Aug-16 23:30N 68°38' E 015°34'0 0.0
2017-Aug-16 23:00N 68°38' E 015°34'0 0.0
2017-Aug-16 22:30N 68°38' E 015°34'0 0.0
2017-Aug-16 22:00N 68°38' E 015°34'0 0.0
2017-Aug-16 21:30N 68°38' E 015°34'0 0.0
2017-Aug-16 21:00N 68°38' E 015°34'0 0.0
2017-Aug-16 20:30N 68°38' E 015°34'0 0.0
2017-Aug-16 20:00N 68°38' E 015°34'0 0.0
2017-Aug-16 19:29N 68°38' E 015°34'0 0.0
2017-Aug-16 19:00N 68°38' E 015°34'0 0.0
2017-Aug-16 18:29N 68°38' E 015°34'0 0.0
2017-Aug-16 18:00N 68°38' E 015°34'0 0.0
2017-Aug-16 17:29N 68°38' E 015°34'0 0.0
2017-Aug-16 17:00N 68°38' E 015°34'0 0.0
2017-Aug-16 16:30N 68°38' E 015°34'1 2.6
2017-Aug-16 16:00N 68°38' E 015°30'4 7.2
2017-Aug-16 15:29N 68°41' E 015°26'4 8.5
2017-Aug-16 15:00N 68°45' E 015°26'4 8.4
2017-Aug-16 14:30N 68°50' E 015°28'4 8.6
2017-Aug-16 14:00N 68°54' E 015°33'4 8.4
2017-Aug-16 13:30N 68°57' E 015°37'1 1.6
2017-Aug-16 13:00N 68°58' E 015°38'0 0.0
2017-Aug-16 12:30N 68°58' E 015°38'0 0.0
2017-Aug-16 12:00N 68°58' E 015°38'0 0.0
2017-Aug-16 11:30N 68°58' E 015°38'0 0.0
2017-Aug-16 10:59N 68°58' E 015°38'0 0.0
2017-Aug-16 10:30N 68°58' E 015°38'0 0.0
2017-Aug-16 10:00N 68°58' E 015°38'0 0.0
2017-Aug-16 09:30N 68°58' E 015°38'1 1.2
2017-Aug-16 09:00N 68°58' E 015°37'0 0.4
2017-Aug-16 08:30N 68°58' E 015°38'0 0.8
2017-Aug-16 08:00N 68°58' E 015°38'0 0.0
2017-Aug-16 07:29N 68°58' E 015°38'0 0.0
2017-Aug-16 07:00N 68°58' E 015°38'0 0.0
2017-Aug-16 06:30N 68°58' E 015°38'0 0.0
2017-Aug-16 06:00N 68°58' E 015°38'0 0.0
2017-Aug-16 05:30N 68°58' E 015°38'0 0.0
2017-Aug-16 04:59N 68°58' E 015°38'0 0.0
2017-Aug-16 04:30N 68°58' E 015°38'0 0.0
2017-Aug-16 04:00N 68°58' E 015°38'1 1.1
2017-Aug-16 03:30N 68°58' E 015°38'4 7.0
2017-Aug-16 03:00N 68°54' E 015°34'3 6.7
2017-Aug-16 02:30N 68°51' E 015°30'3 6.3
2017-Aug-16 02:00N 68°49' E 015°27'3 6.7
2017-Aug-16 01:30N 68°45' E 015°26'4 7.3
2017-Aug-16 00:59N 68°41' E 015°26'3 6.6
2017-Aug-16 00:30N 68°38' E 015°28'2 4.6
2017-Aug-16 00:00N 68°38' E 015°34'0 0.0
2017-Aug-15 23:30N 68°38' E 015°34'0 0.0
2017-Aug-15 23:00N 68°38' E 015°34'0 0.0
2017-Aug-15 22:30N 68°38' E 015°34'0 0.0
2017-Aug-15 22:00N 68°38' E 015°34'0 0.0
2017-Aug-15 21:30N 68°38' E 015°34'0 0.0
2017-Aug-15 21:00N 68°38' E 015°34'0 0.0
2017-Aug-15 20:30N 68°38' E 015°34'0 0.0
2017-Aug-15 20:00N 68°38' E 015°34'0 0.0
2017-Aug-15 19:30N 68°38' E 015°34'0 0.0
2017-Aug-15 19:00N 68°38' E 015°34'2 4.2
2017-Aug-15 18:30N 68°38' E 015°28'5 9.0
2017-Aug-15 18:00N 68°43' E 015°26'5 9.1
2017-Aug-15 17:30N 68°47' E 015°26'4 8.9
2017-Aug-15 17:00N 68°51' E 015°30'4 8.8
2017-Aug-15 16:30N 68°55' E 015°35'4 8.0
2017-Aug-15 16:00N 68°58' E 015°42'4 8.6
2017-Aug-15 15:30N 68°60' E 015°54'4 8.8
2017-Aug-15 15:00N 69°03' E 016°01'4 8.7
2017-Aug-15 14:31N 69°07' E 016°07'5 9.0
2017-Aug-15 14:00N 69°11' E 016°10'5 9.3
2017-Aug-15 13:30N 69°16' E 016°12'4 8.1
2017-Aug-15 13:00N 69°20' E 016°09'0 0.3
2017-Aug-15 12:30N 69°20' E 016°08'0 0.0
2017-Aug-15 12:01N 69°20' E 016°08'0 0.0
2017-Aug-15 11:30N 69°20' E 016°08'0 0.0
2017-Aug-15 11:00N 69°20' E 016°08'0 0.0
2017-Aug-15 10:30N 69°20' E 016°08'0 0.0
2017-Aug-15 10:01N 69°20' E 016°08'0 0.0
2017-Aug-15 09:30N 69°20' E 016°08'0 0.0
2017-Aug-15 09:00N 69°20' E 016°08'0 0.0
2017-Aug-15 08:30N 69°20' E 016°08'0 0.0
2017-Aug-15 08:00N 69°20' E 016°08'0 0.0
2017-Aug-15 07:30N 69°20' E 016°08'0 0.0
2017-Aug-15 07:00N 69°20' E 016°08'0 0.0
2017-Aug-15 06:30N 69°20' E 016°08'0 0.0
2017-Aug-15 06:00N 69°20' E 016°08'0 0.0
2017-Aug-15 05:30N 69°20' E 016°08'0 0.0
2017-Aug-15 05:00N 69°20' E 016°08'0 0.0
2017-Aug-15 04:30N 69°20' E 016°08'0 0.0
2017-Aug-15 04:01N 69°20' E 016°08'0 0.0
2017-Aug-15 03:30N 69°20' E 016°08'0 0.0
2017-Aug-15 03:00N 69°20' E 016°08'0 0.0
2017-Aug-15 02:30N 69°20' E 016°08'0 0.0
2017-Aug-15 02:00N 69°20' E 016°08'0 0.0
2017-Aug-15 01:30N 69°20' E 016°08'0 0.0
2017-Aug-15 01:00N 69°20' E 016°08'0 0.0
2017-Aug-15 00:30N 69°20' E 016°08'0 0.0
2017-Aug-15 00:00N 69°20' E 016°08'0 0.0
2017-Aug-14 23:30N 69°20' E 016°08'0 0.0
2017-Aug-14 23:00N 69°20' E 016°08'0 0.0
2017-Aug-14 22:30N 69°20' E 016°08'0 0.0
2017-Aug-14 21:59N 69°20' E 016°08'0 0.0
2017-Aug-14 21:30N 69°20' E 016°08'0 0.0
2017-Aug-14 21:00N 69°20' E 016°08'0 0.0
2017-Aug-14 20:30N 69°20' E 016°08'0 0.0
2017-Aug-14 20:00N 69°20' E 016°08'0 0.0
2017-Aug-14 19:30N 69°20' E 016°08'0 0.0
2017-Aug-14 19:00N 69°20' E 016°08'0 0.0
2017-Aug-14 18:30N 69°20' E 016°08'0 0.0
2017-Aug-14 18:00N 69°20' E 016°08'0 0.0
2017-Aug-14 17:30N 69°20' E 016°08'0 0.0
2017-Aug-14 17:00N 69°20' E 016°08'0 0.0
2017-Aug-14 16:30N 69°20' E 016°08'0 0.0
2017-Aug-14 16:00N 69°20' E 016°08'0 0.0
2017-Aug-14 15:30N 69°20' E 016°08'0 0.0
2017-Aug-14 13:07N 69°20' E 016°08'0 0.0
2017-Aug-14 13:00N 69°20' E 016°08'0 0.0
2017-Aug-14 12:31N 69°20' E 016°08'0 0.0
2017-Aug-14 12:00N 69°20' E 016°08'0 0.0
2017-Aug-14 11:30N 69°20' E 016°08'0 0.0
2017-Aug-14 11:00N 69°20' E 016°08'0 0.0
2017-Aug-14 10:30N 69°20' E 016°08'0 0.0
2017-Aug-14 10:00N 69°20' E 016°08'0 0.0
2017-Aug-14 09:30N 69°20' E 016°08'0 0.0
2017-Aug-14 09:00N 69°20' E 016°08'0 0.0
2017-Aug-14 08:30N 69°20' E 016°08'0 0.0
2017-Aug-14 08:00N 69°20' E 016°08'0 0.0
2017-Aug-14 07:30N 69°20' E 016°08'0 0.2
2017-Aug-14 07:00N 69°20' E 016°08'0 0.0
2017-Aug-14 06:30N 69°20' E 016°08'0 0.0
2017-Aug-14 06:00N 69°20' E 016°08'0 0.0
2017-Aug-14 05:30N 69°20' E 016°08'0 0.0
2017-Aug-14 05:00N 69°20' E 016°08'0 0.0
2017-Aug-14 04:30N 69°20' E 016°08'0 0.0
2017-Aug-14 04:00N 69°20' E 016°08'0 0.0
2017-Aug-14 03:30N 69°20' E 016°08'0 0.0
2017-Aug-14 02:59N 69°20' E 016°08'0 0.0
2017-Aug-14 02:30N 69°20' E 016°08'0 0.0
2017-Aug-14 02:01N 69°20' E 016°08'2 3.3
2017-Aug-14 01:30N 69°19' E 016°12'3 5.8
2017-Aug-14 01:00N 69°16' E 016°14'3 6.1
2017-Aug-14 00:30N 69°13' E 016°13'3 6.4
2017-Aug-14 00:00N 69°10' E 016°11'4 7.0
2017-Aug-13 23:30N 69°06' E 016°08'4 7.2
2017-Aug-13 23:00N 69°03' E 016°02'4 7.3
2017-Aug-13 22:30N 69°00' E 015°56'3 6.8
2017-Aug-13 22:00N 68°59' E 015°47'3 6.8
2017-Aug-13 21:30N 68°58' E 015°38'4 7.2
2017-Aug-13 21:00N 68°55' E 015°35'4 7.3
2017-Aug-13 20:30N 68°51' E 015°30'4 7.9
2017-Aug-13 19:59N 68°48' E 015°26'4 8.2
2017-Aug-13 19:30N 68°44' E 015°26'4 7.8
2017-Aug-13 19:00N 68°40' E 015°26'3 5.2
2017-Aug-13 18:31N 68°38' E 015°32'1 1.6
2017-Aug-13 18:00N 68°38' E 015°34'0 0.0
2017-Aug-13 17:30N 68°38' E 015°34'0 0.0
2017-Aug-13 17:00N 68°38' E 015°34'0 0.0
2017-Aug-13 16:30N 68°38' E 015°34'0 0.0
2017-Aug-13 16:00N 68°38' E 015°34'0 0.0
2017-Aug-13 15:29N 68°38' E 015°34'0 0.0
2017-Aug-13 15:00N 68°38' E 015°34'0 0.0
2017-Aug-13 14:30N 68°38' E 015°34'0 0.0
2017-Aug-13 14:00N 68°38' E 015°34'0 0.0
2017-Aug-13 13:30N 68°38' E 015°34'0 0.0
2017-Aug-13 13:00N 68°38' E 015°34'0 0.0
2017-Aug-13 12:29N 68°38' E 015°34'0 0.0
2017-Aug-13 12:00N 68°38' E 015°34'0 0.0
2017-Aug-13 11:30N 68°38' E 015°34'0 0.0
2017-Aug-13 11:00N 68°38' E 015°34'0 0.0
2017-Aug-13 10:30N 68°38' E 015°34'0 0.0
2017-Aug-13 10:00N 68°38' E 015°34'0 0.0
2017-Aug-13 09:30N 68°38' E 015°34'0 0.0
2017-Aug-13 09:01N 68°38' E 015°34'0 0.0
2017-Aug-13 08:30N 68°38' E 015°34'0 0.0
2017-Aug-13 07:59N 68°38' E 015°34'0 0.0
2017-Aug-13 07:30N 68°38' E 015°34'0 0.0
2017-Aug-13 07:00N 68°38' E 015°34'0 0.0
2017-Aug-13 06:30N 68°38' E 015°34'0 0.0
2017-Aug-13 06:00N 68°38' E 015°34'0 0.0
2017-Aug-13 05:30N 68°38' E 015°34'0 0.0
2017-Aug-13 05:00N 68°38' E 015°34'0 0.0
2017-Aug-13 04:30N 68°38' E 015°34'0 0.0
2017-Aug-13 04:00N 68°38' E 015°34'0 0.0
2017-Aug-13 03:30N 68°38' E 015°34'0 0.0
2017-Aug-13 03:00N 68°38' E 015°34'0 0.0
2017-Aug-13 02:30N 68°38' E 015°34'0 0.0
2017-Aug-13 02:00N 68°38' E 015°34'0 0.0
2017-Aug-13 01:30N 68°38' E 015°34'3 6.4
2017-Aug-13 00:59N 68°38' E 015°25'3 6.1
2017-Aug-13 00:30N 68°36' E 015°20'0 0.0
2017-Aug-13 00:00N 68°36' E 015°20'0 0.0
2017-Aug-12 23:30N 68°36' E 015°20'0 0.0
2017-Aug-12 23:00N 68°36' E 015°20'2 4.2
2017-Aug-12 22:30N 68°37' E 015°23'4 8.2
2017-Aug-12 22:00N 68°38' E 015°34'0 0.1
2017-Aug-12 21:30N 68°38' E 015°34'0 0.0
2017-Aug-12 21:01N 68°38' E 015°34'0 0.0
2017-Aug-12 20:30N 68°38' E 015°34'0 0.0
2017-Aug-12 20:00N 68°38' E 015°34'0 0.0
2017-Aug-12 19:30N 68°38' E 015°34'0 0.0
2017-Aug-12 19:00N 68°38' E 015°34'0 0.0
2017-Aug-12 18:31N 68°38' E 015°34'0 0.0
2017-Aug-12 18:00N 68°38' E 015°34'0 0.0
2017-Aug-12 17:29N 68°38' E 015°34'0 0.0
2017-Aug-12 17:00N 68°38' E 015°34'0 0.3
2017-Aug-12 16:30N 68°38' E 015°34'4 7.0
2017-Aug-12 16:00N 68°38' E 015°24'3 5.6
2017-Aug-12 15:31N 68°36' E 015°20'0 0.0
2017-Aug-12 15:00N 68°36' E 015°20'0 0.0
2017-Aug-12 14:30N 68°36' E 015°20'0 0.0
2017-Aug-12 14:00N 68°36' E 015°20'0 0.0
2017-Aug-12 13:30N 68°36' E 015°20'2 3.5
2017-Aug-12 13:00N 68°37' E 015°22'4 7.6
2017-Aug-12 12:30N 68°38' E 015°32'1 1.2
2017-Aug-12 12:00N 68°38' E 015°34'0 0.0
2017-Aug-12 11:30N 68°38' E 015°34'0 0.0
2017-Aug-12 11:00N 68°38' E 015°34'0 0.0
2017-Aug-12 10:30N 68°38' E 015°34'0 0.0
2017-Aug-12 10:00N 68°38' E 015°34'0 0.0
2017-Aug-12 09:30N 68°38' E 015°34'0 0.0
2017-Aug-12 08:59N 68°38' E 015°34'0 0.0
2017-Aug-12 08:30N 68°38' E 015°34'0 0.0
2017-Aug-12 08:00N 68°38' E 015°34'0 0.0
2017-Aug-12 07:30N 68°38' E 015°34'2 3.8
2017-Aug-12 07:00N 68°38' E 015°29'4 7.8
2017-Aug-12 06:30N 68°36' E 015°20'0 0.7
2017-Aug-12 06:00N 68°36' E 015°20'0 0.0
2017-Aug-12 05:30N 68°36' E 015°20'0 0.0
2017-Aug-12 05:00N 68°36' E 015°20'0 0.0
2017-Aug-12 04:30N 68°36' E 015°20'0 0.0
2017-Aug-12 04:00N 68°36' E 015°20'1 2.7
2017-Aug-12 03:30N 68°36' E 015°16'4 8.6
2017-Aug-12 03:00N 68°32' E 015°09'4 8.5
2017-Aug-12 02:30N 68°28' E 015°12'510.5
2017-Aug-12 02:00N 68°23' E 015°05'5 9.5
2017-Aug-12 01:30N 68°19' E 014°59'5 9.1
2017-Aug-12 01:00N 68°15' E 014°56'4 8.9
2017-Aug-12 00:30N 68°10' E 014°52'4 8.6
2017-Aug-12 00:00N 68°07' E 014°47'4 8.8
2017-Aug-11 23:30N 68°03' E 014°42'5 9.6
2017-Aug-11 23:00N 67°58' E 014°37'5 9.7
2017-Aug-11 22:30N 67°54' E 014°30'5 9.4
2017-Aug-11 22:00N 67°49' E 014°30'5 9.3
2017-Aug-11 21:30N 67°45' E 014°31'5 9.3
2017-Aug-11 21:00N 67°40' E 014°31'4 9.1
2017-Aug-11 20:30N 67°36' E 014°30'5 9.1
2017-Aug-11 20:00N 67°31' E 014°30'5 9.1
2017-Aug-11 19:30N 67°27' E 014°28'5 9.3
2017-Aug-11 19:00N 67°22' E 014°25'5 9.1
2017-Aug-11 18:30N 67°18' E 014°22'0 0.6
2017-Aug-11 18:00N 67°17' E 014°23'0 0.0
2017-Aug-11 17:30N 67°17' E 014°23'0 0.6
2017-Aug-11 17:00N 67°17' E 014°22'3 5.5
2017-Aug-11 16:30N 67°15' E 014°18'4 8.8
2017-Aug-11 16:00N 67°15' E 014°29'4 7.4
2017-Aug-11 15:30N 67°13' E 014°38'1 2.5
2017-Aug-11 15:00N 67°13' E 014°42'6 5.9
2017-Aug-11 14:00N 67°16' E 014°55'4 8.1
2017-Aug-11 13:30N 67°15' E 015°05'4 8.9
2017-Aug-11 13:00N 67°14' E 015°16'3 6.7
2017-Aug-11 12:30N 67°15' E 015°24'0 0.5
2017-Aug-11 11:59N 67°15' E 015°25'0 0.0
2017-Aug-11 11:30N 67°15' E 015°25'0 0.0
2017-Aug-11 11:00N 67°15' E 015°25'0 0.0
2017-Aug-11 10:30N 67°15' E 015°25'0 0.0
2017-Aug-11 10:00N 67°15' E 015°25'0 0.0
2017-Aug-11 09:30N 67°15' E 015°25'0 0.0
2017-Aug-11 08:59N 67°15' E 015°25'0 0.0
2017-Aug-11 08:30N 67°15' E 015°25'0 0.0
2017-Aug-11 08:00N 67°15' E 015°25'0 0.0
2017-Aug-11 07:29N 67°15' E 015°25'0 0.0
2017-Aug-11 07:00N 67°15' E 015°25'0 0.0
2017-Aug-11 06:30N 67°15' E 015°25'0 0.0
2017-Aug-11 06:00N 67°15' E 015°25'0 0.1
2017-Aug-11 05:30N 67°15' E 015°25'4 7.4
2017-Aug-11 05:00N 67°14' E 015°15'4 7.9
2017-Aug-11 04:30N 67°15' E 015°06'4 8.8
2017-Aug-11 04:00N 67°16' E 014°54'4 7.9
2017-Aug-11 03:30N 67°14' E 014°45'3 6.5
2017-Aug-11 03:00N 67°14' E 014°37'2 4.9
2017-Aug-11 02:30N 67°15' E 014°31'4 7.7
2017-Aug-11 02:00N 67°14' E 014°22'4 7.7
2017-Aug-11 01:30N 67°12' E 014°13'4 7.1
2017-Aug-11 01:00N 67°11' E 014°04'4 8.1
2017-Aug-11 00:30N 67°07' E 014°00'4 7.8
2017-Aug-11 00:00N 67°04' E 013°54'4 7.7
2017-Aug-10 23:30N 67°02' E 013°46'4 7.7
2017-Aug-10 23:00N 66°60' E 013°38'4 8.5
2017-Aug-10 22:30N 66°57' E 013°29'4 7.4
2017-Aug-10 22:00N 66°54' E 013°26'4 8.2
2017-Aug-10 21:30N 66°51' E 013°19'4 7.9
2017-Aug-10 20:59N 66°47' E 013°14'4 8.3
2017-Aug-10 20:30N 66°43' E 013°11'4 8.4
2017-Aug-10 20:00N 66°39' E 013°07'4 8.4
2017-Aug-10 19:29N 66°35' E 013°05'  
Track history (hours):
 
Tides and Currents Weather Stations Pressure Air Temp Water Temp Dewpoint Dewpoint Depression Visibility Wind Speed Wind Dir Waves Ship Positions

Trine Charlotte

Last reported at 2017-Aug-20 19:00 UTC. Time now 2017-Aug-20 19:19 UTC.
Position N 68°38' E 015°34'.

Length 66 m; draft 4.4 m.

Type: Cargo ship. MMSI: 257233000.

Date/timePositionNaut miles runAvg speedWind from/ knotsBaromVisibWave heightAir tempDewpointWater temp
2017-Aug-20 19:00N 68°38' E 015°34'0 0.0
2017-Aug-20 18:30N 68°38' E 015°34'0 0.0
2017-Aug-20 18:00N 68°38' E 015°34'0 0.0
2017-Aug-20 17:30N 68°38' E 015°34'0 0.0
2017-Aug-20 17:00N 68°38' E 015°34'0 0.0
2017-Aug-20 16:30N 68°38' E 015°34'0 0.0
2017-Aug-20 16:00N 68°38' E 015°34'0 0.0
2017-Aug-20 15:30N 68°38' E 015°34'0 0.0
2017-Aug-20 15:00N 68°38' E 015°34'0 0.0
2017-Aug-20 14:30N 68°38' E 015°34'0 0.0
2017-Aug-20 14:00N 68°38' E 015°34'1 1.9
2017-Aug-20 13:30N 68°38' E 015°31'4 7.7
2017-Aug-20 13:00N 68°37' E 015°21'1 2.8
2017-Aug-20 12:30N 68°36' E 015°20'0 0.0
2017-Aug-20 12:00N 68°36' E 015°20'0 0.0
2017-Aug-20 11:30N 68°36' E 015°20'0 0.0
2017-Aug-20 11:00N 68°36' E 015°20'2 4.9
2017-Aug-20 10:30N 68°38' E 015°24'4 7.5
2017-Aug-20 10:00N 68°38' E 015°34'0 0.0
2017-Aug-20 09:30N 68°38' E 015°34'0 0.0
2017-Aug-20 09:00N 68°38' E 015°34'0 0.0
2017-Aug-20 08:30N 68°38' E 015°34'0 0.0
2017-Aug-20 08:00N 68°38' E 015°34'0 0.0
2017-Aug-20 07:30N 68°38' E 015°34'0 0.0
2017-Aug-20 07:00N 68°38' E 015°34'0 0.0
2017-Aug-20 06:29N 68°38' E 015°34'0 0.0
2017-Aug-20 06:00N 68°38' E 015°34'0 0.0
2017-Aug-20 05:30N 68°38' E 015°34'0 0.0
2017-Aug-20 05:00N 68°38' E 015°34'0 0.0
2017-Aug-20 04:30N 68°38' E 015°34'0 0.0
2017-Aug-20 04:00N 68°38' E 015°34'0 0.0
2017-Aug-20 03:29N 68°38' E 015°34'0 0.0
2017-Aug-20 03:00N 68°38' E 015°34'0 0.0
2017-Aug-20 02:30N 68°38' E 015°34'0 0.0
2017-Aug-20 02:00N 68°38' E 015°34'0 0.0
2017-Aug-20 01:30N 68°38' E 015°34'1 2.5
2017-Aug-20 01:00N 68°38' E 015°31'4 7.4
2017-Aug-20 00:30N 68°37' E 015°21'1 2.5
2017-Aug-20 00:00N 68°36' E 015°20'0 0.0
2017-Aug-19 23:30N 68°36' E 015°20'0 0.0
2017-Aug-19 23:00N 68°36' E 015°20'0 0.0
2017-Aug-19 22:30N 68°36' E 015°20'4 7.3
2017-Aug-19 21:59N 68°38' E 015°27'2 4.9
2017-Aug-19 21:30N 68°38' E 015°34'0 0.0
2017-Aug-19 21:00N 68°38' E 015°34'0 0.0
2017-Aug-19 20:30N 68°38' E 015°34'0 0.0
2017-Aug-19 20:00N 68°38' E 015°34'0 0.0
2017-Aug-19 19:30N 68°38' E 015°34'0 0.0
2017-Aug-19 18:59N 68°38' E 015°34'0 0.0
2017-Aug-19 18:30N 68°38' E 015°34'0 0.0
2017-Aug-19 18:00N 68°38' E 015°34'0 0.0
2017-Aug-19 17:30N 68°38' E 015°34'0 0.0
2017-Aug-19 17:00N 68°38' E 015°34'0 0.0
2017-Aug-19 16:30N 68°38' E 015°34'0 0.0
2017-Aug-19 16:00N 68°38' E 015°34'0 0.2
2017-Aug-19 15:31N 68°38' E 015°34'4 7.6
2017-Aug-19 15:00N 68°38' E 015°24'2 2.5
2017-Aug-19 14:00N 68°36' E 015°20'0 0.0
2017-Aug-19 13:30N 68°36' E 015°20'0 0.0
2017-Aug-19 13:00N 68°36' E 015°20'0 0.0
2017-Aug-19 12:30N 68°36' E 015°20'2 4.7
2017-Aug-19 12:00N 68°37' E 015°24'4 7.7
2017-Aug-19 11:30N 68°38' E 015°34'0 0.0
2017-Aug-19 11:00N 68°38' E 015°34'0 0.0
2017-Aug-19 10:30N 68°38' E 015°34'0 0.0
2017-Aug-19 10:00N 68°38' E 015°34'0 0.0
2017-Aug-19 09:30N 68°38' E 015°34'0 0.0
2017-Aug-19 09:00N 68°38' E 015°34'0 0.0
2017-Aug-19 08:30N 68°38' E 015°34'0 0.0
2017-Aug-19 08:00N 68°38' E 015°34'0 0.0
2017-Aug-19 07:30N 68°38' E 015°34'0 0.0
2017-Aug-19 06:59N 68°38' E 015°34'0 0.0
2017-Aug-19 06:29N 68°38' E 015°34'0 0.0
2017-Aug-19 06:00N 68°38' E 015°34'0 0.0
2017-Aug-19 05:30N 68°38' E 015°34'0 0.0
2017-Aug-19 05:00N 68°38' E 015°34'0 0.0
2017-Aug-19 04:30N 68°38' E 015°34'0 0.0
2017-Aug-19 04:00N 68°38' E 015°34'0 0.0
2017-Aug-19 03:30N 68°38' E 015°34'0 0.0
2017-Aug-19 03:00N 68°38' E 015°34'0 0.0
2017-Aug-19 02:30N 68°38' E 015°34'0 0.0
2017-Aug-19 02:00N 68°38' E 015°34'0 0.0
2017-Aug-19 01:30N 68°38' E 015°34'0 0.0
2017-Aug-19 01:00N 68°38' E 015°34'0 0.0
2017-Aug-19 00:30N 68°38' E 015°34'0 0.0
2017-Aug-19 00:00N 68°38' E 015°34'0 0.0
2017-Aug-18 23:30N 68°38' E 015°34'0 0.0
2017-Aug-18 22:59N 68°38' E 015°34'0 0.0
2017-Aug-18 22:30N 68°38' E 015°34'0 0.0
2017-Aug-18 22:00N 68°38' E 015°34'0 0.0
2017-Aug-18 21:30N 68°38' E 015°34'0 0.0
2017-Aug-18 21:00N 68°38' E 015°34'0 0.0
2017-Aug-18 20:29N 68°38' E 015°34'0 0.0
2017-Aug-18 20:00N 68°38' E 015°34'0 0.0
2017-Aug-18 19:29N 68°38' E 015°34'0 0.0
2017-Aug-18 19:00N 68°38' E 015°34'0 0.0
2017-Aug-18 18:30N 68°38' E 015°34'0 0.0
2017-Aug-18 18:00N 68°38' E 015°34'0 0.0
2017-Aug-18 17:30N 68°38' E 015°34'1 2.9
2017-Aug-18 17:00N 68°38' E 015°30'4 7.7
2017-Aug-18 16:30N 68°37' E 015°20'1 1.9
2017-Aug-18 15:59N 68°36' E 015°20'0 0.0
2017-Aug-18 15:30N 68°36' E 015°20'0 0.0
2017-Aug-18 15:00N 68°36' E 015°20'0 0.0
2017-Aug-18 14:30N 68°36' E 015°20'6 6.3
2017-Aug-18 13:29N 68°42' E 015°26'1 1.3
2017-Aug-18 12:59N 68°42' E 015°25'0 0.0
2017-Aug-18 12:30N 68°42' E 015°25'2 3.4
2017-Aug-18 11:59N 68°44' E 015°26'4 8.7
2017-Aug-18 11:30N 68°48' E 015°26'5 9.0
2017-Aug-18 11:00N 68°52' E 015°31'5 9.2
2017-Aug-18 10:30N 68°56' E 015°36'2 3.8
2017-Aug-18 10:00N 68°58' E 015°39'0 0.0
2017-Aug-18 09:29N 68°58' E 015°39'1 1.6
2017-Aug-18 09:00N 68°58' E 015°37'0 0.3
2017-Aug-18 08:30N 68°58' E 015°37'1 1.3
2017-Aug-18 08:00N 68°58' E 015°39'0 0.0
2017-Aug-18 07:30N 68°58' E 015°39'0 0.0
2017-Aug-18 07:00N 68°58' E 015°39'0 0.0
2017-Aug-18 06:29N 68°58' E 015°39'0 0.0
2017-Aug-18 06:00N 68°58' E 015°39'0 0.0
2017-Aug-18 05:29N 68°58' E 015°39'0 0.0
2017-Aug-18 05:00N 68°58' E 015°39'0 0.0
2017-Aug-18 04:30N 68°58' E 015°39'0 0.1
2017-Aug-18 04:00N 68°58' E 015°39'4 7.3
2017-Aug-18 03:30N 68°55' E 015°35'4 8.3
2017-Aug-18 03:00N 68°51' E 015°29'4 8.5
2017-Aug-18 02:30N 68°47' E 015°26'5 9.5
2017-Aug-18 02:00N 68°42' E 015°26'4 8.9
2017-Aug-18 01:30N 68°38' E 015°29'2 3.8
2017-Aug-18 01:00N 68°38' E 015°34'0 0.0
2017-Aug-18 00:30N 68°38' E 015°34'0 0.0
2017-Aug-18 00:00N 68°38' E 015°34'0 0.0
2017-Aug-17 23:30N 68°38' E 015°34'0 0.0
2017-Aug-17 23:00N 68°38' E 015°34'1 2.6
2017-Aug-17 22:30N 68°38' E 015°31'4 7.9
2017-Aug-17 22:00N 68°42' E 015°26'5 9.5
2017-Aug-17 21:29N 68°46' E 015°26'5 9.5
2017-Aug-17 21:00N 68°51' E 015°29'5 9.7
2017-Aug-17 20:30N 68°55' E 015°35'3 6.1
2017-Aug-17 20:00N 68°58' E 015°39'0 0.0
2017-Aug-17 18:41N 68°58' E 015°39'0 0.0
2017-Aug-17 18:29N 68°58' E 015°39'0 0.0
2017-Aug-17 18:00N 68°58' E 015°39'0 0.0
2017-Aug-17 17:30N 68°58' E 015°39'0 0.0
2017-Aug-17 17:00N 68°58' E 015°39'0 0.0
2017-Aug-17 16:30N 68°58' E 015°39'0 0.0
2017-Aug-17 16:00N 68°58' E 015°39'0 0.0
2017-Aug-17 15:29N 68°58' E 015°39'0 0.0
2017-Aug-17 15:00N 68°58' E 015°39'0 0.0
2017-Aug-17 14:29N 68°58' E 015°39'0 0.0
2017-Aug-17 14:00N 68°58' E 015°39'0 0.0
2017-Aug-17 13:29N 68°58' E 015°39'0 0.0
2017-Aug-17 12:59N 68°58' E 015°39'0 0.0
2017-Aug-17 12:30N 68°58' E 015°39'0 0.0
2017-Aug-17 12:00N 68°58' E 015°39'0 0.0
2017-Aug-17 11:30N 68°58' E 015°39'0 0.0
2017-Aug-17 10:59N 68°58' E 015°39'0 0.0
2017-Aug-17 10:30N 68°58' E 015°39'0 0.0
2017-Aug-17 10:00N 68°58' E 015°39'0 0.0
2017-Aug-17 09:29N 68°58' E 015°39'1 1.7
2017-Aug-17 09:00N 68°58' E 015°37'0 0.7
2017-Aug-17 08:30N 68°58' E 015°38'0 0.9
2017-Aug-17 07:59N 68°58' E 015°38'0 0.0
2017-Aug-17 07:30N 68°58' E 015°38'0 0.0
2017-Aug-17 07:00N 68°58' E 015°38'0 0.0
2017-Aug-17 06:30N 68°58' E 015°38'0 0.0
2017-Aug-17 06:00N 68°58' E 015°38'0 0.0
2017-Aug-17 05:30N 68°58' E 015°38'0 0.0
2017-Aug-17 05:00N 68°58' E 015°38'0 0.0
2017-Aug-17 04:30N 68°58' E 015°38'0 0.0
2017-Aug-17 04:00N 68°58' E 015°38'1 1.6
2017-Aug-17 03:30N 68°57' E 015°37'3 6.4
2017-Aug-17 03:00N 68°54' E 015°35'3 6.5
2017-Aug-17 02:30N 68°52' E 015°30'4 7.2
2017-Aug-17 02:00N 68°48' E 015°26'4 7.8
2017-Aug-17 01:30N 68°44' E 015°26'4 8.1
2017-Aug-17 01:00N 68°40' E 015°26'3 5.4
2017-Aug-17 00:30N 68°38' E 015°30'1 2.6
2017-Aug-17 00:00N 68°38' E 015°34'0 0.0
2017-Aug-16 23:30N 68°38' E 015°34'0 0.0
2017-Aug-16 23:00N 68°38' E 015°34'0 0.0
2017-Aug-16 22:30N 68°38' E 015°34'0 0.0
2017-Aug-16 22:00N 68°38' E 015°34'0 0.0
2017-Aug-16 21:30N 68°38' E 015°34'0 0.0
2017-Aug-16 21:00N 68°38' E 015°34'0 0.0
2017-Aug-16 20:30N 68°38' E 015°34'0 0.0
2017-Aug-16 20:00N 68°38' E 015°34'0 0.0
2017-Aug-16 19:29N 68°38' E 015°34'0 0.0
2017-Aug-16 19:00N 68°38' E 015°34'0 0.0
2017-Aug-16 18:29N 68°38' E 015°34'0 0.0
2017-Aug-16 18:00N 68°38' E 015°34'0 0.0
2017-Aug-16 17:29N 68°38' E 015°34'0 0.0
2017-Aug-16 17:00N 68°38' E 015°34'0 0.0
2017-Aug-16 16:30N 68°38' E 015°34'1 2.6
2017-Aug-16 16:00N 68°38' E 015°30'4 7.2
2017-Aug-16 15:29N 68°41' E 015°26'4 8.5
2017-Aug-16 15:00N 68°45' E 015°26'4 8.4
2017-Aug-16 14:30N 68°50' E 015°28'4 8.6
2017-Aug-16 14:00N 68°54' E 015°33'4 8.4
2017-Aug-16 13:30N 68°57' E 015°37'1 1.6
2017-Aug-16 13:00N 68°58' E 015°38'0 0.0
2017-Aug-16 12:30N 68°58' E 015°38'0 0.0
2017-Aug-16 12:00N 68°58' E 015°38'0 0.0
2017-Aug-16 11:30N 68°58' E 015°38'0 0.0
2017-Aug-16 10:59N 68°58' E 015°38'0 0.0
2017-Aug-16 10:30N 68°58' E 015°38'0 0.0
2017-Aug-16 10:00N 68°58' E 015°38'0 0.0
2017-Aug-16 09:30N 68°58' E 015°38'1 1.2
2017-Aug-16 09:00N 68°58' E 015°37'0 0.4
2017-Aug-16 08:30N 68°58' E 015°38'0 0.8
2017-Aug-16 08:00N 68°58' E 015°38'0 0.0
2017-Aug-16 07:29N 68°58' E 015°38'0 0.0
2017-Aug-16 07:00N 68°58' E 015°38'0 0.0
2017-Aug-16 06:30N 68°58' E 015°38'0 0.0
2017-Aug-16 06:00N 68°58' E 015°38'0 0.0
2017-Aug-16 05:30N 68°58' E 015°38'0 0.0
2017-Aug-16 04:59N 68°58' E 015°38'0 0.0
2017-Aug-16 04:30N 68°58' E 015°38'0 0.0
2017-Aug-16 04:00N 68°58' E 015°38'1 1.1
2017-Aug-16 03:30N 68°58' E 015°38'4 7.0
2017-Aug-16 03:00N 68°54' E 015°34'3 6.7
2017-Aug-16 02:30N 68°51' E 015°30'3 6.3
2017-Aug-16 02:00N 68°49' E 015°27'3 6.7
2017-Aug-16 01:30N 68°45' E 015°26'4 7.3
2017-Aug-16 00:59N 68°41' E 015°26'3 6.6
2017-Aug-16 00:30N 68°38' E 015°28'2 4.6
2017-Aug-16 00:00N 68°38' E 015°34'0 0.0
2017-Aug-15 23:30N 68°38' E 015°34'0 0.0
2017-Aug-15 23:00N 68°38' E 015°34'0 0.0
2017-Aug-15 22:30N 68°38' E 015°34'0 0.0
2017-Aug-15 22:00N 68°38' E 015°34'0 0.0
2017-Aug-15 21:30N 68°38' E 015°34'0 0.0
2017-Aug-15 21:00N 68°38' E 015°34'0 0.0
2017-Aug-15 20:30N 68°38' E 015°34'0 0.0
2017-Aug-15 20:00N 68°38' E 015°34'0 0.0
2017-Aug-15 19:30N 68°38' E 015°34'0 0.0
2017-Aug-15 19:00N 68°38' E 015°34'2 4.2
2017-Aug-15 18:30N 68°38' E 015°28'5 9.0
2017-Aug-15 18:00N 68°43' E 015°26'5 9.1
2017-Aug-15 17:30N 68°47' E 015°26'4 8.9
2017-Aug-15 17:00N 68°51' E 015°30'4 8.8
2017-Aug-15 16:30N 68°55' E 015°35'4 8.0
2017-Aug-15 16:00N 68°58' E 015°42'4 8.6
2017-Aug-15 15:30N 68°60' E 015°54'4 8.8
2017-Aug-15 15:00N 69°03' E 016°01'4 8.7
2017-Aug-15 14:31N 69°07' E 016°07'5 9.0
2017-Aug-15 14:00N 69°11' E 016°10'5 9.3
2017-Aug-15 13:30N 69°16' E 016°12'4 8.1
2017-Aug-15 13:00N 69°20' E 016°09'0 0.3
2017-Aug-15 12:30N 69°20' E 016°08'0 0.0
2017-Aug-15 12:01N 69°20' E 016°08'0 0.0
2017-Aug-15 11:30N 69°20' E 016°08'0 0.0
2017-Aug-15 11:00N 69°20' E 016°08'0 0.0
2017-Aug-15 10:30N 69°20' E 016°08'0 0.0
2017-Aug-15 10:01N 69°20' E 016°08'0 0.0
2017-Aug-15 09:30N 69°20' E 016°08'0 0.0
2017-Aug-15 09:00N 69°20' E 016°08'0 0.0
2017-Aug-15 08:30N 69°20' E 016°08'0 0.0
2017-Aug-15 08:00N 69°20' E 016°08'0 0.0
2017-Aug-15 07:30N 69°20' E 016°08'0 0.0
2017-Aug-15 07:00N 69°20' E 016°08'0 0.0
2017-Aug-15 06:30N 69°20' E 016°08'0 0.0
2017-Aug-15 06:00N 69°20' E 016°08'0 0.0
2017-Aug-15 05:30N 69°20' E 016°08'0 0.0
2017-Aug-15 05:00N 69°20' E 016°08'0 0.0
2017-Aug-15 04:30N 69°20' E 016°08'0 0.0
2017-Aug-15 04:01N 69°20' E 016°08'0 0.0
2017-Aug-15 03:30N 69°20' E 016°08'0 0.0
2017-Aug-15 03:00N 69°20' E 016°08'0 0.0
2017-Aug-15 02:30N 69°20' E 016°08'0 0.0
2017-Aug-15 02:00N 69°20' E 016°08'0 0.0
2017-Aug-15 01:30N 69°20' E 016°08'0 0.0
2017-Aug-15 01:00N 69°20' E 016°08'0 0.0
2017-Aug-15 00:30N 69°20' E 016°08'0 0.0
2017-Aug-15 00:00N 69°20' E 016°08'0 0.0
2017-Aug-14 23:30N 69°20' E 016°08'0 0.0
2017-Aug-14 23:00N 69°20' E 016°08'0 0.0
2017-Aug-14 22:30N 69°20' E 016°08'0 0.0
2017-Aug-14 21:59N 69°20' E 016°08'0 0.0
2017-Aug-14 21:30N 69°20' E 016°08'0 0.0
2017-Aug-14 21:00N 69°20' E 016°08'0 0.0
2017-Aug-14 20:30N 69°20' E 016°08'0 0.0
2017-Aug-14 20:00N 69°20' E 016°08'0 0.0
2017-Aug-14 19:30N 69°20' E 016°08'0 0.0
2017-Aug-14 19:00N 69°20' E 016°08'0 0.0
2017-Aug-14 18:30N 69°20' E 016°08'0 0.0
2017-Aug-14 18:00N 69°20' E 016°08'0 0.0
2017-Aug-14 17:30N 69°20' E 016°08'0 0.0
2017-Aug-14 17:00N 69°20' E 016°08'0 0.0
2017-Aug-14 16:30N 69°20' E 016°08'0 0.0
2017-Aug-14 16:00N 69°20' E 016°08'0 0.0
2017-Aug-14 15:30N 69°20' E 016°08'0 0.0
2017-Aug-14 13:07N 69°20' E 016°08'0 0.0
2017-Aug-14 13:00N 69°20' E 016°08'0 0.0
2017-Aug-14 12:31N 69°20' E 016°08'0 0.0
2017-Aug-14 12:00N 69°20' E 016°08'0 0.0
2017-Aug-14 11:30N 69°20' E 016°08'0 0.0
2017-Aug-14 11:00N 69°20' E 016°08'0 0.0
2017-Aug-14 10:30N 69°20' E 016°08'0 0.0
2017-Aug-14 10:00N 69°20' E 016°08'0 0.0
2017-Aug-14 09:30N 69°20' E 016°08'0 0.0
2017-Aug-14 09:00N 69°20' E 016°08'0 0.0
2017-Aug-14 08:30N 69°20' E 016°08'0 0.0
2017-Aug-14 08:00N 69°20' E 016°08'0 0.0
2017-Aug-14 07:30N 69°20' E 016°08'0 0.2
2017-Aug-14 07:00N 69°20' E 016°08'0 0.0
2017-Aug-14 06:30N 69°20' E 016°08'0 0.0
2017-Aug-14 06:00N 69°20' E 016°08'0 0.0
2017-Aug-14 05:30N 69°20' E 016°08'0 0.0
2017-Aug-14 05:00N 69°20' E 016°08'0 0.0
2017-Aug-14 04:30N 69°20' E 016°08'0 0.0
2017-Aug-14 04:00N 69°20' E 016°08'0 0.0
2017-Aug-14 03:30N 69°20' E 016°08'0 0.0
2017-Aug-14 02:59N 69°20' E 016°08'0 0.0
2017-Aug-14 02:30N 69°20' E 016°08'0 0.0
2017-Aug-14 02:01N 69°20' E 016°08'2 3.3
2017-Aug-14 01:30N 69°19' E 016°12'3 5.8
2017-Aug-14 01:00N 69°16' E 016°14'3 6.1
2017-Aug-14 00:30N 69°13' E 016°13'3 6.4
2017-Aug-14 00:00N 69°10' E 016°11'4 7.0
2017-Aug-13 23:30N 69°06' E 016°08'4 7.2
2017-Aug-13 23:00N 69°03' E 016°02'4 7.3
2017-Aug-13 22:30N 69°00' E 015°56'3 6.8
2017-Aug-13 22:00N 68°59' E 015°47'3 6.8
2017-Aug-13 21:30N 68°58' E 015°38'4 7.2
2017-Aug-13 21:00N 68°55' E 015°35'4 7.3
2017-Aug-13 20:30N 68°51' E 015°30'4 7.9
2017-Aug-13 19:59N 68°48' E 015°26'4 8.2
2017-Aug-13 19:30N 68°44' E 015°26'4 7.8
2017-Aug-13 19:00N 68°40' E 015°26'3 5.2
2017-Aug-13 18:31N 68°38' E 015°32'1 1.6
2017-Aug-13 18:00N 68°38' E 015°34'0 0.0
2017-Aug-13 17:30N 68°38' E 015°34'0 0.0
2017-Aug-13 17:00N 68°38' E 015°34'0 0.0
2017-Aug-13 16:30N 68°38' E 015°34'0 0.0
2017-Aug-13 16:00N 68°38' E 015°34'0 0.0
2017-Aug-13 15:29N 68°38' E 015°34'0 0.0
2017-Aug-13 15:00N 68°38' E 015°34'0 0.0
2017-Aug-13 14:30N 68°38' E 015°34'0 0.0
2017-Aug-13 14:00N 68°38' E 015°34'0 0.0
2017-Aug-13 13:30N 68°38' E 015°34'0 0.0
2017-Aug-13 13:00N 68°38' E 015°34'0 0.0
2017-Aug-13 12:29N 68°38' E 015°34'0 0.0
2017-Aug-13 12:00N 68°38' E 015°34'0 0.0
2017-Aug-13 11:30N 68°38' E 015°34'0 0.0
2017-Aug-13 11:00N 68°38' E 015°34'0 0.0
2017-Aug-13 10:30N 68°38' E 015°34'0 0.0
2017-Aug-13 10:00N 68°38' E 015°34'0 0.0
2017-Aug-13 09:30N 68°38' E 015°34'0 0.0
2017-Aug-13 09:01N 68°38' E 015°34'0 0.0
2017-Aug-13 08:30N 68°38' E 015°34'0 0.0
2017-Aug-13 07:59N 68°38' E 015°34'0 0.0
2017-Aug-13 07:30N 68°38' E 015°34'0 0.0
2017-Aug-13 07:00N 68°38' E 015°34'0 0.0
2017-Aug-13 06:30N 68°38' E 015°34'0 0.0
2017-Aug-13 06:00N 68°38' E 015°34'0 0.0
2017-Aug-13 05:30N 68°38' E 015°34'0 0.0
2017-Aug-13 05:00N 68°38' E 015°34'0 0.0
2017-Aug-13 04:30N 68°38' E 015°34'0 0.0
2017-Aug-13 04:00N 68°38' E 015°34'0 0.0
2017-Aug-13 03:30N 68°38' E 015°34'0 0.0
2017-Aug-13 03:00N 68°38' E 015°34'0 0.0
2017-Aug-13 02:30N 68°38' E 015°34'0 0.0
2017-Aug-13 02:00N 68°38' E 015°34'0 0.0
2017-Aug-13 01:30N 68°38' E 015°34'3 6.4
2017-Aug-13 00:59N 68°38' E 015°25'3 6.1
2017-Aug-13 00:30N 68°36' E 015°20'0 0.0
2017-Aug-13 00:00N 68°36' E 015°20'0 0.0
2017-Aug-12 23:30N 68°36' E 015°20'0 0.0
2017-Aug-12 23:00N 68°36' E 015°20'2 4.2
2017-Aug-12 22:30N 68°37' E 015°23'4 8.2
2017-Aug-12 22:00N 68°38' E 015°34'0 0.1
2017-Aug-12 21:30N 68°38' E 015°34'0 0.0
2017-Aug-12 21:01N 68°38' E 015°34'0 0.0
2017-Aug-12 20:30N 68°38' E 015°34'0 0.0
2017-Aug-12 20:00N 68°38' E 015°34'0 0.0
2017-Aug-12 19:30N 68°38' E 015°34'0 0.0
2017-Aug-12 19:00N 68°38' E 015°34'0 0.0
2017-Aug-12 18:31N 68°38' E 015°34'0 0.0
2017-Aug-12 18:00N 68°38' E 015°34'0 0.0
2017-Aug-12 17:29N 68°38' E 015°34'0 0.0
2017-Aug-12 17:00N 68°38' E 015°34'0 0.3
2017-Aug-12 16:30N 68°38' E 015°34'4 7.0
2017-Aug-12 16:00N 68°38' E 015°24'3 5.6
2017-Aug-12 15:31N 68°36' E 015°20'0 0.0
2017-Aug-12 15:00N 68°36' E 015°20'0 0.0
2017-Aug-12 14:30N 68°36' E 015°20'0 0.0
2017-Aug-12 14:00N 68°36' E 015°20'0 0.0
2017-Aug-12 13:30N 68°36' E 015°20'2 3.5
2017-Aug-12 13:00N 68°37' E 015°22'4 7.6
2017-Aug-12 12:30N 68°38' E 015°32'1 1.2
2017-Aug-12 12:00N 68°38' E 015°34'0 0.0
2017-Aug-12 11:30N 68°38' E 015°34'0 0.0
2017-Aug-12 11:00N 68°38' E 015°34'0 0.0
2017-Aug-12 10:30N 68°38' E 015°34'0 0.0
2017-Aug-12 10:00N 68°38' E 015°34'0 0.0
2017-Aug-12 09:30N 68°38' E 015°34'0 0.0
2017-Aug-12 08:59N 68°38' E 015°34'0 0.0
2017-Aug-12 08:30N 68°38' E 015°34'0 0.0
2017-Aug-12 08:00N 68°38' E 015°34'0 0.0
2017-Aug-12 07:30N 68°38' E 015°34'2 3.8
2017-Aug-12 07:00N 68°38' E 015°29'4 7.8
2017-Aug-12 06:30N 68°36' E 015°20'0 0.7
2017-Aug-12 06:00N 68°36' E 015°20'0 0.0
2017-Aug-12 05:30N 68°36' E 015°20'0 0.0
2017-Aug-12 05:00N 68°36' E 015°20'0 0.0
2017-Aug-12 04:30N 68°36' E 015°20'0 0.0
2017-Aug-12 04:00N 68°36' E 015°20'1 2.7
2017-Aug-12 03:30N 68°36' E 015°16'4 8.6
2017-Aug-12 03:00N 68°32' E 015°09'4 8.5
2017-Aug-12 02:30N 68°28' E 015°12'510.5
2017-Aug-12 02:00N 68°23' E 015°05'5 9.5
2017-Aug-12 01:30N 68°19' E 014°59'5 9.1
2017-Aug-12 01:00N 68°15' E 014°56'4 8.9
2017-Aug-12 00:30N 68°10' E 014°52'4 8.6
2017-Aug-12 00:00N 68°07' E 014°47'4 8.8
2017-Aug-11 23:30N 68°03' E 014°42'5 9.6
2017-Aug-11 23:00N 67°58' E 014°37'5 9.7
2017-Aug-11 22:30N 67°54' E 014°30'5 9.4
2017-Aug-11 22:00N 67°49' E 014°30'5 9.3
2017-Aug-11 21:30N 67°45' E 014°31'5 9.3
2017-Aug-11 21:00N 67°40' E 014°31'4 9.1
2017-Aug-11 20:30N 67°36' E 014°30'5 9.1
2017-Aug-11 20:00N 67°31' E 014°30'5 9.1
2017-Aug-11 19:30N 67°27' E 014°28'5 9.3
2017-Aug-11 19:00N 67°22' E 014°25'5 9.1
2017-Aug-11 18:30N 67°18' E 014°22'0 0.6
2017-Aug-11 18:00N 67°17' E 014°23'0 0.0
2017-Aug-11 17:30N 67°17' E 014°23'0 0.6
2017-Aug-11 17:00N 67°17' E 014°22'3 5.5
2017-Aug-11 16:30N 67°15' E 014°18'4 8.8
2017-Aug-11 16:00N 67°15' E 014°29'4 7.4
2017-Aug-11 15:30N 67°13' E 014°38'1 2.5
2017-Aug-11 15:00N 67°13' E 014°42'6 5.9
2017-Aug-11 14:00N 67°16' E 014°55'4 8.1
2017-Aug-11 13:30N 67°15' E 015°05'4 8.9
2017-Aug-11 13:00N 67°14' E 015°16'3 6.7
2017-Aug-11 12:30N 67°15' E 015°24'0 0.5
2017-Aug-11 11:59N 67°15' E 015°25'0 0.0
2017-Aug-11 11:30N 67°15' E 015°25'0 0.0
2017-Aug-11 11:00N 67°15' E 015°25'0 0.0
2017-Aug-11 10:30N 67°15' E 015°25'0 0.0
2017-Aug-11 10:00N 67°15' E 015°25'0 0.0
2017-Aug-11 09:30N 67°15' E 015°25'0 0.0
2017-Aug-11 08:59N 67°15' E 015°25'0 0.0
2017-Aug-11 08:30N 67°15' E 015°25'0 0.0
2017-Aug-11 08:00N 67°15' E 015°25'0 0.0
2017-Aug-11 07:29N 67°15' E 015°25'0 0.0
2017-Aug-11 07:00N 67°15' E 015°25'0 0.0
2017-Aug-11 06:30N 67°15' E 015°25'0 0.0
2017-Aug-11 06:00N 67°15' E 015°25'0 0.1
2017-Aug-11 05:30N 67°15' E 015°25'4 7.4
2017-Aug-11 05:00N 67°14' E 015°15'4 7.9
2017-Aug-11 04:30N 67°15' E 015°06'4 8.8
2017-Aug-11 04:00N 67°16' E 014°54'4 7.9
2017-Aug-11 03:30N 67°14' E 014°45'3 6.5
2017-Aug-11 03:00N 67°14' E 014°37'2 4.9
2017-Aug-11 02:30N 67°15' E 014°31'4 7.7
2017-Aug-11 02:00N 67°14' E 014°22'4 7.7
2017-Aug-11 01:30N 67°12' E 014°13'4 7.1
2017-Aug-11 01:00N 67°11' E 014°04'4 8.1
2017-Aug-11 00:30N 67°07' E 014°00'4 7.8
2017-Aug-11 00:00N 67°04' E 013°54'4 7.7
2017-Aug-10 23:30N 67°02' E 013°46'4 7.7
2017-Aug-10 23:00N 66°60' E 013°38'4 8.5
2017-Aug-10 22:30N 66°57' E 013°29'4 7.4
2017-Aug-10 22:00N 66°54' E 013°26'4 8.2
2017-Aug-10 21:30N 66°51' E 013°19'4 7.9
2017-Aug-10 20:59N 66°47' E 013°14'4 8.3
2017-Aug-10 20:30N 66°43' E 013°11'4 8.4
2017-Aug-10 20:00N 66°39' E 013°07'4 8.4
2017-Aug-10 19:29N 66°35' E 013°05'  

Dump ship's entire track history